Time;durP1;ratioP1;P1;durP2;ratioP2;P2;SDS_P1;SDS_P2;PMS_P1;PMS_P2;Temp;Humidity;BMP_temperature;BMP_pressure;BME280_temperature;BME280_humidity;BME280_pressure;Samples;Min_cycle;Max_cycle;Signal;HPM_P1;HPM_P2
2022/07/28 00:02:05;;;;;;;7.07;2.63;;;;;;;15.36;100.00;99152.34;5173685;27;20501;-50
2022/07/28 00:04:31;;;;;;;7.30;2.22;;;;;;;15.41;100.00;99154.69;5173353;27;20569;-51
2022/07/28 00:06:58;;;;;;;10.55;2.63;;;;;;;15.35;100.00;99163.78;5173581;27;20078;-50
2022/07/28 00:09:24;;;;;;;11.88;2.58;;;;;;;15.39;100.00;99167.31;5173552;27;20140;-54
2022/07/28 00:11:50;;;;;;;4.93;2.17;;;;;;;15.32;100.00;99172.84;5173521;27;20645;-51
2022/07/28 00:14:17;;;;;;;18.08;3.97;;;;;;;15.05;100.00;99171.28;5173473;27;20832;-51
2022/07/28 00:16:44;;;;;;;8.10;2.40;;;;;;;15.21;100.00;99170.13;5173297;27;20064;-53
2022/07/28 00:19:10;;;;;;;12.05;2.70;;;;;;;15.14;100.00;99176.44;5173378;27;20050;-50
2022/07/28 00:21:36;;;;;;;8.18;2.35;;;;;;;15.18;100.00;99179.19;5173048;27;20174;-52
2022/07/28 00:24:03;;;;;;;14.10;3.60;;;;;;;14.97;100.00;99183.53;5173084;27;20082;-52
2022/07/28 00:26:29;;;;;;;12.10;2.08;;;;;;;15.07;100.00;99182.75;5172942;27;20137;-52
2022/07/28 00:28:56;;;;;;;9.73;2.72;;;;;;;15.00;100.00;99182.75;5173364;27;20060;-51
2022/07/28 00:31:23;;;;;;;8.23;3.30;;;;;;;14.98;100.00;99184.31;5172901;27;20050;-52
2022/07/28 00:33:49;;;;;;;6.50;2.00;;;;;;;14.83;100.00;99175.25;5173146;27;20046;-52
2022/07/28 00:36:15;;;;;;;10.70;2.72;;;;;;;14.89;100.00;99173.66;5172790;27;20492;-55
2022/07/28 00:38:42;;;;;;;9.60;3.03;;;;;;;14.93;100.00;99171.72;5172951;27;20054;-53
2022/07/28 00:41:10;;;;;;;9.30;2.85;;;;;;;14.93;100.00;99160.66;5172828;27;20046;-51
2022/07/28 00:43:37;;;;;;;5.32;2.10;;;;;;;14.95;100.00;99169.31;5172667;27;20050;-53
2022/07/28 00:46:03;;;;;;;13.77;2.58;;;;;;;14.80;100.00;99156.72;5172678;27;20137;-53
2022/07/28 00:48:30;;;;;;;7.00;2.72;;;;;;;14.88;100.00;99157.50;5172278;27;20053;-54
2022/07/28 00:50:57;;;;;;;10.20;2.40;;;;;;;14.82;100.00;99157.09;5172809;27;20050;-51
2022/07/28 00:53:23;;;;;;;5.20;2.50;;;;;;;14.78;100.00;99161.81;5172619;27;20046;-54
2022/07/28 00:55:49;;;;;;;12.10;4.45;;;;;;;14.70;100.00;99146.47;5172656;27;20406;-53
2022/07/28 00:58:16;;;;;;;8.45;2.25;;;;;;;14.78;100.00;99153.53;5172325;27;20523;-53
2022/07/28 01:00:42;;;;;;;13.23;2.72;;;;;;;14.73;100.00;99162.22;5172786;27;20606;-54
2022/07/28 01:03:08;;;;;;;11.13;3.13;;;;;;;14.70;100.00;99163.00;5172323;27;20136;-51
2022/07/28 01:05:44;;;;;;;5.85;2.67;;;;;;;14.62;100.00;99162.19;5172404;27;20046;-51
2022/07/28 01:08:18;;;;;;;9.07;2.70;;;;;;;14.66;100.00;99153.91;5172782;27;20082;-52
2022/07/28 01:10:51;;;;;;;;;;;;;;;14.57;100.00;99146.84;5172654;27;20527;-52
2022/07/28 01:13:26;;;;;;;10.77;2.83;;;;;;;14.55;100.00;99140.91;5172539;27;20001;-54
2022/07/28 01:15:57;;;;;;;8.98;3.00;;;;;;;14.54;100.00;99149.59;5172384;27;20054;-52
2022/07/28 01:18:28;;;;;;;11.55;3.03;;;;;;;14.43;100.00;99154.25;5172350;27;20046;-51
2022/07/28 01:21:02;;;;;;;13.80;2.95;;;;;;;14.36;100.00;99119.16;5172187;27;20082;-52
2022/07/28 01:23:57;;;;;;;10.07;2.95;;;;;;;14.42;100.00;99125.88;5172652;27;20118;-53
2022/07/28 01:26:47;;;;;;;6.65;2.95;;;;;;;14.40;100.00;99117.22;5172616;27;20053;-51
2022/07/28 01:29:27;;;;;;;5.38;2.70;;;;;;;14.41;100.00;99124.31;5172035;27;20050;-51
2022/07/28 01:32:00;;;;;;;8.80;2.63;;;;;;;14.38;100.00;99127.84;5172490;27;20054;-51
2022/07/28 01:34:31;;;;;;;5.53;2.42;;;;;;;14.41;100.00;99126.28;5172268;27;20081;-52
2022/07/28 01:37:02;;;;;;;5.65;2.65;;;;;;;14.36;100.00;99130.19;5172100;27;20056;-50
2022/07/28 01:39:33;;;;;;;8.68;2.65;;;;;;;14.38;100.00;99144.41;5172376;27;20042;-50
2022/07/28 01:42:02;;;;;;;10.95;2.40;;;;;;;14.27;100.00;99136.09;5171877;27;20137;-49
2022/07/28 01:44:31;;;;;;;7.05;2.00;;;;;;;14.14;100.00;99143.16;5171935;27;20081;-50
2022/07/28 01:47:00;;;;;;;4.35;2.00;;;;;;;14.32;100.00;99123.88;5171835;27;20053;-49
2022/07/28 01:49:28;;;;;;;7.00;2.20;;;;;;;14.39;100.00;99132.19;5171800;27;20089;-49
2022/07/28 01:51:56;;;;;;;4.32;2.40;;;;;;;14.37;100.00;99151.09;5171953;27;20053;-50
2022/07/28 01:54:27;;;;;;;6.30;3.13;;;;;;;14.19;100.00;99155.75;5172437;27;20172;-50
2022/07/28 01:56:55;;;;;;;5.03;2.35;;;;;;;14.33;100.00;99155.81;5171752;27;20091;-51
2022/07/28 01:59:22;;;;;;;7.50;2.35;;;;;;;14.29;100.00;99164.06;5171903;27;20099;-50
2022/07/28 02:01:51;;;;;;;11.85;2.53;;;;;;;14.26;100.00;99169.56;5173701;27;20080;-51
2022/07/28 02:04:20;;;;;;;9.65;2.30;;;;;;;14.08;100.00;99184.09;5175322;27;20050;-50
2022/07/28 02:06:49;;;;;;;6.45;2.83;;;;;;;14.16;100.00;99190.44;5175408;27;20145;-51
2022/07/28 02:09:17;;;;;;;3.42;2.53;;;;;;;14.01;100.00;99195.09;5175407;27;20183;-51
2022/07/28 02:11:45;;;;;;;6.00;2.35;;;;;;;14.14;100.00;99192.78;5175301;27;20519;-53
2022/07/28 02:14:15;;;;;;;4.78;1.90;;;;;;;14.11;100.00;99202.59;5175036;27;20046;-50
2022/07/28 02:16:47;;;;;;;9.05;2.60;;;;;;;14.08;100.00;99206.13;5175456;27;20050;-52
2022/07/28 02:19:15;;;;;;;9.43;2.95;;;;;;;14.07;100.00;99215.59;5175236;27;20050;-50
2022/07/28 02:21:46;;;;;;;2.38;2.13;;;;;;;13.95;100.00;99226.94;5175292;27;20477;-51
2022/07/28 02:24:13;;;;;;;13.18;2.42;;;;;;;14.01;100.00;99238.41;5175007;27;20133;-50
2022/07/28 02:26:45;;;;;;;10.18;2.25;;;;;;;14.02;100.00;99239.97;5174956;27;20137;-50
2022/07/28 02:29:13;;;;;;;8.10;2.20;;;;;;;14.01;100.00;99249.44;5175020;27;20082;-51
2022/07/28 02:31:46;;;;;;;6.75;2.15;;;;;;;14.03;100.00;99247.09;5174879;27;20078;-50
2022/07/28 02:34:14;;;;;;;4.65;2.00;;;;;;;14.02;100.00;99262.03;5175006;27;20048;-51
2022/07/28 02:36:50;;;;;;;4.93;2.20;;;;;;;14.08;100.00;99269.53;5174849;27;20133;-51
2022/07/28 02:39:21;;;;;;;9.32;2.47;;;;;;;14.07;100.00;99284.50;5174741;27;20056;-51
2022/07/28 02:41:55;;;;;;;4.35;2.22;;;;;;;14.05;100.00;99289.59;5174661;27;20046;-50
2022/07/28 02:44:26;;;;;;;6.97;1.75;;;;;;;13.97;100.00;99299.03;5174654;27;20413;-52
2022/07/28 02:46:54;;;;;;;9.90;1.95;;;;;;;14.11;100.00;99318.41;5175066;27;20046;-50
2022/07/28 02:49:24;;;;;;;10.60;2.20;;;;;;;14.17;100.00;99326.31;5174856;27;20574;-50
2022/07/28 02:51:54;;;;;;;4.10;1.83;;;;;;;14.30;100.00;99330.34;5174664;27;20453;-54
2022/07/28 02:54:22;;;;;;;10.50;2.08;;;;;;;14.68;100.00;99344.72;5174512;27;20098;-50
2022/07/28 02:56:50;;;;;;;7.28;1.92;;;;;;;15.10;100.00;99382.72;5174465;27;20050;-50
2022/07/28 02:59:18;;;;;;;6.57;1.95;;;;;;;15.45;100.00;99448.31;5174447;27;20046;-53
2022/07/28 03:01:47;;;;;;;7.15;1.88;;;;;;;15.82;100.00;99502.50;5174631;27;20057;-51
2022/07/28 03:04:14;;;;;;;4.40;1.65;;;;;;;16.25;100.00;99552.38;5174484;27;20473;-50
2022/07/28 03:06:41;;;;;;;4.45;1.77;;;;;;;16.51;100.00;99580.84;5174345;27;20133;-54
2022/07/28 03:09:08;;;;;;;6.82;2.42;;;;;;;16.86;100.00;99555.97;5174240;27;20046;-50
2022/07/28 03:11:34;;;;;;;3.53;1.80;;;;;;;17.11;100.00;99508.03;5173783;27;20114;-51
2022/07/28 03:14:01;;;;;;;6.25;2.25;;;;;;;17.56;100.00;99459.13;5174532;27;20496;-51
2022/07/28 03:16:27;;;;;;;3.97;1.40;;;;;;;17.93;100.00;99374.53;5174158;27;20528;-50
2022/07/28 03:18:53;;;;;;;5.25;1.70;;;;;;;18.13;100.00;99193.59;5174451;27;20096;-51
2022/07/28 03:21:19;;;;;;;8.43;1.92;;;;;;;18.40;100.00;99138.16;5174069;27;20606;-51
2022/07/28 03:23:49;;;;;;;4.00;1.50;;;;;;;18.73;100.00;98981.78;5174402;27;20128;-53
2022/07/28 03:26:22;;;;;;;5.80;1.60;;;;;;;18.77;100.00;98879.75;5173910;27;20496;-54
2022/07/28 03:28:51;;;;;;;15.40;1.58;;;;;;;19.14;100.00;98752.00;5173980;27;20042;-51
2022/07/28 03:31:19;;;;;;;4.78;1.23;;;;;;;19.18;100.00;98663.75;5173811;27;20198;-52
2022/07/28 03:33:46;;;;;;;4.13;1.30;;;;;;;19.30;100.00;98649.19;5174075;27;20046;-51
2022/07/28 03:36:18;;;;;;;6.55;2.15;;;;;;;19.36;100.00;98566.84;5173848;27;20527;-51
2022/07/28 03:38:51;;;;;;;6.18;1.58;;;;;;;19.65;100.00;98504.88;5173642;27;20504;-52
2022/07/28 03:41:20;;;;;;;10.15;1.50;;;;;;;19.95;100.00;98414.56;5173871;27;20106;-51
2022/07/28 03:43:48;;;;;;;7.28;2.58;;;;;;;19.71;100.00;98401.00;5173893;27;20505;-52
2022/07/28 03:46:14;;;;;;;6.03;1.60;;;;;;;19.33;100.00;98430.75;5173860;27;20042;-50
2022/07/28 03:48:40;;;;;;;4.70;1.45;;;;;;;19.19;100.00;98513.31;5173659;27;20129;-52
2022/07/28 03:51:06;;;;;;;5.10;1.70;;;;;;;19.71;100.00;98519.78;5173850;27;20093;-53
2022/07/28 03:53:33;;;;;;;3.40;1.65;;;;;;;20.09;100.00;98400.22;5173680;27;20481;-51
2022/07/28 03:55:59;;;;;;;7.15;1.77;;;;;;;20.27;100.00;98310.53;5173684;27;20046;-52
2022/07/28 03:58:27;;;;;;;6.47;1.48;;;;;;;20.47;100.00;98276.81;5173546;27;20085;-55
2022/07/28 04:00:53;;;;;;;5.97;2.10;;;;;;;20.60;100.00;98238.59;5173416;27;20478;-52
2022/07/28 04:03:20;;;;;;;7.10;2.03;;;;;;;20.96;100.00;98234.44;5173412;27;20046;-55
2022/07/28 04:05:47;;;;;;;6.05;1.60;;;;;;;21.12;100.00;98186.78;5173138;27;20046;-54
2022/07/28 04:08:13;;;;;;;6.18;2.20;;;;;;;21.25;100.00;98169.97;5173724;27;20054;-52
2022/07/28 04:10:40;;;;;;;3.10;1.33;;;;;;;21.32;100.00;98152.16;5173397;27;20102;-55
2022/07/28 04:13:07;;;;;;;9.52;2.03;;;;;;;21.55;100.00;98159.97;5173449;27;20336;-52
2022/07/28 04:15:34;;;;;;;5.07;2.17;;;;;;;21.93;100.00;98146.81;5173206;27;20050;-51
2022/07/28 04:18:00;;;;;;;6.00;1.85;;;;;;;21.71;100.00;98155.34;5173409;27;20557;-53
2022/07/28 04:20:27;;;;;;;6.25;1.85;;;;;;;22.36;100.00;98148.47;5173067;27;20050;-56
2022/07/28 04:22:54;;;;;;;6.07;2.00;;;;;;;22.32;100.00;98147.84;5173220;27;20097;-52
2022/07/28 04:25:22;;;;;;;4.40;1.90;;;;;;;22.75;100.00;98146.59;5172341;27;20049;-54
2022/07/28 04:27:49;;;;;;;4.22;1.42;;;;;;;22.59;100.00;98162.97;5173097;27;20416;-51
2022/07/28 04:30:18;;;;;;;5.57;1.80;;;;;;;23.15;100.00;98144.75;5173255;27;20501;-54
2022/07/28 04:32:47;;;;;;;6.40;1.60;;;;;;;23.08;100.00;98189.81;5172789;27;20429;-52
2022/07/28 04:35:14;;;;;;;5.10;1.70;;;;;;;23.32;100.00;98207.38;5173105;27;20186;-51
2022/07/28 04:37:40;;;;;;;4.32;1.70;;;;;;;23.24;100.00;98204.19;5172756;27;20043;-52
2022/07/28 04:40:09;;;;;;;3.70;1.63;;;;;;;23.54;100.00;98228.72;5173053;27;20090;-52
2022/07/28 04:42:37;;;;;;;4.65;1.40;;;;;;;23.99;100.00;98260.47;5172612;27;20070;-55
2022/07/28 04:45:03;;;;;;;3.25;1.58;;;;;;;23.62;100.00;98283.84;5172945;27;20424;-53
2022/07/28 04:47:30;;;;;;;7.50;1.77;;;;;;;23.44;100.00;98292.34;5172570;27;20458;-51
2022/07/28 04:49:57;;;;;;;3.63;1.55;;;;;;;23.71;100.00;98246.66;5173005;27;20083;-53
2022/07/28 04:52:24;;;;;;;3.97;1.40;;;;;;;23.87;100.00;98279.06;5172505;27;20137;-54
2022/07/28 04:54:50;;;;;;;4.45;1.48;;;;;;;23.90;100.00;98298.47;5172660;27;20133;-52
2022/07/28 04:57:17;;;;;;;4.88;1.60;;;;;;;24.21;100.00;98332.97;5172557;27;20439;-51
2022/07/28 04:59:44;;;;;;;5.15;1.48;;;;;;;24.12;100.00;98316.97;5172234;27;20543;-52
2022/07/28 05:02:11;;;;;;;4.32;1.30;;;;;;;24.31;100.00;98338.00;5172434;27;20054;-52
2022/07/28 05:04:37;;;;;;;4.57;1.42;;;;;;;24.14;100.00;98336.88;5172475;27;20054;-53
2022/07/28 05:07:04;;;;;;;5.55;1.40;;;;;;;24.58;100.00;98347.47;5172563;27;20583;-55
2022/07/28 05:09:31;;;;;;;7.30;1.70;;;;;;;24.44;100.00;98363.00;5172303;27;20497;-52
2022/07/28 05:11:57;;;;;;;4.80;1.65;;;;;;;24.77;100.00;98339.69;5172716;27;20054;-54
2022/07/28 05:14:23;;;;;;;3.65;1.25;;;;;;;24.92;100.00;98376.13;5172091;27;20137;-53
2022/07/28 05:16:50;;;;;;;5.85;1.67;;;;;;;25.17;100.00;98392.44;5172444;27;20046;-52
2022/07/28 05:19:16;;;;;;;3.63;1.38;;;;;;;24.76;100.00;98411.78;5172266;27;20145;-54
2022/07/28 05:21:42;;;;;;;8.90;1.80;;;;;;;24.83;100.00;98417.03;5172332;27;20410;-52
2022/07/28 05:24:09;;;;;;;5.78;1.67;;;;;;;25.19;100.00;98397.53;5172096;27;20105;-50
2022/07/28 05:26:36;;;;;;;4.07;1.45;;;;;;;25.57;100.00;98388.25;5171886;27;20133;-53
2022/07/28 05:29:02;;;;;;;6.07;1.90;;;;;;;25.68;100.00;98433.34;5171970;27;20054;-53
2022/07/28 05:31:28;;;;;;;6.15;3.70;;;;;;;26.07;100.00;98461.28;5171876;27;20102;-52
2022/07/28 05:33:54;;;;;;;8.35;2.78;;;;;;;26.18;100.00;98453.03;5172099;27;20102;-55
2022/07/28 05:36:21;;;;;;;7.30;3.47;;;;;;;25.96;100.00;98475.94;5174721;27;20057;-55
2022/07/28 05:38:47;;;;;;;3.30;1.33;;;;;;;25.90;100.00;98493.97;5175652;27;20051;-53
2022/07/28 05:41:14;;;;;;;6.25;2.10;;;;;;;26.25;100.00;98475.06;5175560;27;20061;-52
2022/07/28 05:43:40;;;;;;;4.70;1.60;;;;;;;26.60;100.00;98543.84;5175759;27;20137;-51
2022/07/28 05:46:06;;;;;;;8.15;2.10;;;;;;;26.42;100.00;98511.84;5175633;27;20046;-54
2022/07/28 05:48:33;;;;;;;5.28;1.73;;;;;;;26.88;100.00;98518.91;5175926;27;20141;-53
2022/07/28 05:50:59;;;;;;;2.58;1.40;;;;;;;26.89;100.00;98538.09;5175773;27;20050;-52
2022/07/28 05:53:25;;;;;;;5.88;1.35;;;;;;;26.39;100.00;98597.16;5176027;27;20477;-55
2022/07/28 05:55:52;;;;;;;3.63;1.30;;;;;;;26.21;100.00;98600.94;5175583;27;20057;-54
2022/07/28 05:58:21;;;;;;;4.55;1.42;;;;;;;26.44;100.00;98595.69;5175214;27;20141;-52
2022/07/28 06:00:48;;;;;;;6.63;1.40;;;;;;;26.28;100.00;98608.97;5175571;27;20165;-53
2022/07/28 06:03:14;;;;;;;4.15;1.20;;;;;;;25.86;100.00;98594.44;5175402;27;20500;-54
2022/07/28 06:05:40;;;;;;;2.10;1.23;;;;;;;26.41;100.00;98678.94;5175736;27;20373;-51
2022/07/28 06:08:07;;;;;;;2.40;1.00;;;;;;;26.45;100.00;98625.34;5175039;27;20424;-54
2022/07/28 06:13:15;;;;;;;4.32;1.10;;;;;;;27.08;100.00;98639.09;5174097;27;20089;-54
2022/07/28 06:15:43;;;;;;;4.20;1.10;;;;;;;27.06;100.00;98648.03;5175194;27;20070;-52
2022/07/28 06:18:09;;;;;;;2.53;1.10;;;;;;;27.10;100.00;98678.78;5175026;27;20050;-53
2022/07/28 06:20:36;;;;;;;3.13;0.80;;;;;;;26.45;100.00;98681.53;5174835;27;20046;-52
2022/07/28 06:23:02;;;;;;;2.05;0.90;;;;;;;26.75;100.00;98657.78;5174861;27;20149;-54
2022/07/28 06:25:30;;;;;;;2.92;1.02;;;;;;;26.75;100.00;98680.28;5175150;27;20424;-53
2022/07/28 06:27:57;;;;;;;4.45;1.30;;;;;;;26.85;100.00;98641.56;5175086;27;20068;-52
2022/07/28 06:30:24;;;;;;;4.70;1.58;;;;;;;27.38;100.00;98648.22;5174805;27;20515;-55
2022/07/28 06:32:51;;;;;;;2.45;1.20;;;;;;;27.53;100.00;98707.28;5175101;27;20050;-53
2022/07/28 06:35:18;;;;;;;2.30;1.30;;;;;;;27.27;100.00;98733.25;5174552;27;20054;-51
2022/07/28 06:37:46;;;;;;;3.17;1.38;;;;;;;27.94;100.00;98698.81;5174893;27;20042;-55
2022/07/28 06:40:13;;;;;;;3.33;1.10;;;;;;;28.24;100.00;98742.44;5174711;27;20082;-53
2022/07/28 06:42:41;;;;;;;2.85;0.90;;;;;;;28.69;100.00;98759.84;5174530;27;20057;-53
2022/07/28 06:45:08;;;;;;;1.50;0.90;;;;;;;28.35;100.00;98765.09;5174580;27;20054;-55
2022/07/28 06:47:35;;;;;;;1.70;0.95;;;;;;;28.24;100.00;98734.00;5173914;27;20082;-54
2022/07/28 06:50:03;;;;;;;2.65;1.10;;;;;;;28.31;100.00;98736.38;5174621;27;20068;-53
2022/07/28 06:52:29;;;;;;;2.65;1.00;;;;;;;28.48;100.00;98750.66;5174512;27;20449;-54
2022/07/28 06:54:56;;;;;;;1.33;1.15;;;;;;;27.57;100.00;98775.41;5174352;27;20113;-52
2022/07/28 06:57:22;;;;;;;4.47;1.42;;;;;;;27.47;100.00;98773.97;5174403;27;20046;-54
2022/07/28 06:59:49;;;;;;;2.90;1.00;;;;;;;27.79;100.00;98772.13;5174374;27;20088;-53
2022/07/28 07:02:16;;;;;;;9.32;1.65;;;;;;;28.39;100.00;98764.94;5174428;27;20151;-54
2022/07/28 07:04:42;;;;;;;3.25;1.10;;;;;;;27.95;100.00;98777.19;5174406;27;20054;-51
2022/07/28 07:07:10;;;;;;;3.15;1.27;;;;;;;27.41;100.00;98771.84;5174218;27;20106;-52
2022/07/28 07:09:36;;;;;;;1.13;1.00;;;;;;;27.18;100.00;98751.03;5174354;27;20543;-51
2022/07/28 07:12:04;;;;;;;6.90;1.60;;;;;;;27.50;100.00;98742.03;5174174;27;20562;-56
2022/07/28 07:14:30;;;;;;;4.03;1.23;;;;;;;27.95;100.00;98669.38;5174152;27;20052;-51
2022/07/28 07:16:56;;;;;;;2.95;1.15;;;;;;;28.31;100.00;98747.63;5174103;27;20099;-54
2022/07/28 07:19:23;;;;;;;7.13;1.20;;;;;;;28.41;100.00;98770.84;5174064;27;20128;-55
2022/07/28 07:21:49;;;;;;;2.55;1.15;;;;;;;28.35;100.00;98778.44;5174202;27;20134;-54
2022/07/28 07:24:16;;;;;;;1.95;1.08;;;;;;;28.63;100.00;98761.06;5174021;27;20049;-53
2022/07/28 07:26:42;;;;;;;5.00;1.35;;;;;;;29.22;100.00;98777.47;5174081;27;20420;-53
2022/07/28 07:29:10;;;;;;;3.33;1.17;;;;;;;29.43;100.00;98783.78;5173811;27;20046;-54
2022/07/28 07:31:37;;;;;;;1.90;1.30;;;;;;;30.00;100.00;98789.25;5173867;27;20143;-53
2022/07/28 07:34:04;;;;;;;3.10;1.10;;;;;;;30.02;100.00;98809.31;5173856;27;20057;-55
2022/07/28 07:36:30;;;;;;;2.03;1.00;;;;;;;30.19;100.00;98805.78;5174023;27;20133;-55
2022/07/28 07:38:57;;;;;;;5.85;1.38;;;;;;;30.39;100.00;98833.09;5173820;27;20102;-56
2022/07/28 07:41:25;;;;;;;3.35;1.20;;;;;;;30.29;100.00;98824.09;5173536;27;20145;-53
2022/07/28 07:43:51;;;;;;;2.42;1.10;;;;;;;30.54;100.00;98830.06;5173606;27;20046;-53
2022/07/28 07:46:18;;;;;;;2.13;1.27;;;;;;;30.10;100.00;98852.00;5173518;27;20136;-54
2022/07/28 07:48:44;;;;;;;3.22;1.40;;;;;;;29.28;100.00;98832.69;5173531;27;20092;-53
2022/07/28 07:51:10;;;;;;;6.22;3.33;;;;;;;28.09;100.00;98786.84;5173597;27;20050;-55
2022/07/28 07:53:37;;;;;;;3.28;1.45;;;;;;;28.44;100.00;98800.09;5173685;27;20149;-54
2022/07/28 07:56:03;;;;;;;8.32;4.03;;;;;;;28.40;100.00;98758.03;5173568;27;20133;-54
2022/07/28 07:58:30;;;;;;;3.63;1.80;;;;;;;28.06;100.00;98760.44;5172267;27;20081;-55
2022/07/28 08:00:56;;;;;;;4.57;0.93;;;;;;;27.39;100.00;98782.84;5173261;27;20058;-57
2022/07/28 08:03:23;;;;;;;3.15;1.17;;;;;;;27.62;100.00;98786.75;5173578;27;20042;-52
2022/07/28 08:05:50;;;;;;;5.22;1.30;;;;;;;27.64;100.00;98774.97;5173310;27;20064;-54
2022/07/28 08:08:16;;;;;;;6.43;1.55;;;;;;;28.44;100.00;98811.38;5173360;27;20604;-59
2022/07/28 08:10:42;;;;;;;4.72;1.15;;;;;;;28.80;100.00;98838.91;5173306;27;20085;-57
2022/07/28 08:13:09;;;;;;;3.13;1.27;;;;;;;29.28;100.00;98837.56;5173218;27;20073;-57
2022/07/28 08:15:36;;;;;;;8.13;1.77;;;;;;;29.87;100.00;98825.66;5173027;27;20091;-57
2022/07/28 08:18:02;;;;;;;4.63;2.00;;;;;;;29.74;100.00;98833.81;5173301;27;20484;-57
2022/07/28 08:20:29;;;;;;;5.22;1.52;;;;;;;29.48;100.00;98823.34;5172934;27;20050;-56
2022/07/28 08:22:56;;;;;;;3.17;1.20;;;;;;;30.04;100.00;98854.00;5173063;27;20091;-57
2022/07/28 08:25:23;;;;;;;4.82;1.30;;;;;;;29.90;100.00;98869.88;5173236;27;20137;-57
2022/07/28 08:27:49;;;;;;;4.03;1.20;;;;;;;28.94;100.00;98842.91;5172938;27;20053;-57
2022/07/28 08:30:17;;;;;;;6.72;1.10;;;;;;;27.72;100.00;98795.03;5173045;27;20050;-56
2022/07/28 08:32:45;;;;;;;5.63;1.75;;;;;;;26.70;100.00;98776.56;5172995;27;20056;-57
2022/07/28 08:35:11;;;;;;;3.70;1.30;;;;;;;26.70;100.00;98770.94;5172896;27;20049;-57
2022/07/28 08:37:38;;;;;;;2.35;1.30;;;;;;;26.97;100.00;98789.56;5172927;27;20141;-57
2022/07/28 08:40:10;;;;;;;3.72;1.20;;;;;;;27.08;100.00;98819.91;5172804;27;20046;-56
2022/07/28 08:42:48;;;;;;;4.75;1.48;;;;;;;26.58;100.00;98791.69;5172593;27;20042;-56
2022/07/28 08:45:16;;;;;;;3.58;1.40;;;;;;;26.08;100.00;98712.03;5172860;27;20046;-54
2022/07/28 08:47:42;;;;;;;3.50;1.90;;;;;;;25.73;100.00;98726.66;5172949;27;20046;-55
2022/07/28 08:50:11;;;;;;;4.38;1.67;;;;;;;25.34;100.00;98726.59;5172769;27;20536;-57
2022/07/28 08:52:39;;;;;;;3.08;1.23;;;;;;;24.87;100.00;98728.78;5172642;27;20169;-57
2022/07/28 08:55:08;;;;;;;2.67;1.42;;;;;;;24.67;100.00;98720.16;5172613;27;20504;-56
2022/07/28 08:57:36;;;;;;;4.00;1.60;;;;;;;25.61;100.00;98722.06;5172619;27;20046;-57
2022/07/28 09:00:03;;;;;;;7.03;4.05;;;;;;;26.66;100.00;98725.41;5172269;27;20046;-56
2022/07/28 09:02:32;;;;;;;4.88;1.50;;;;;;;28.09;100.00;98792.47;5172497;27;20052;-57
2022/07/28 09:04:59;;;;;;;6.93;1.60;;;;;;;28.74;100.00;98798.59;5172339;27;20056;-54
2022/07/28 09:07:26;;;;;;;3.72;1.70;;;;;;;29.23;100.00;98818.56;5172492;27;20046;-52
2022/07/28 09:09:53;;;;;;;4.28;1.30;;;;;;;29.72;100.00;98825.06;5171753;27;20133;-53
2022/07/28 09:12:19;;;;;;;3.40;1.30;;;;;;;29.47;100.00;98843.63;5172220;27;20089;-53
2022/07/28 09:14:46;;;;;;;8.07;2.25;;;;;;;29.88;100.00;98824.38;5172269;27;20046;-53
2022/07/28 09:17:12;;;;;;;3.22;1.60;;;;;;;30.12;100.00;98888.22;5172175;27;20094;-53
2022/07/28 09:19:39;;;;;;;4.55;1.65;;;;;;;29.75;100.00;98869.25;5172308;27;20516;-52
2022/07/28 09:22:06;;;;;;;15.45;2.30;;;;;;;28.80;100.00;98869.19;5171903;27;20058;-52
2022/07/28 09:24:35;;;;;;;6.97;3.13;;;;;;;28.01;100.00;98813.91;5171948;27;20077;-53
2022/07/28 09:27:05;;;;;;;7.57;2.13;;;;;;;27.15;100.00;98787.81;5172126;27;20053;-53
2022/07/28 09:29:32;;;;;;;7.50;3.35;;;;;;;26.29;100.00;98745.41;5172213;27;20049;-53
2022/07/28 09:31:59;;;;;;;3.35;1.50;;;;;;;25.49;100.00;98768.75;5171840;27;20089;-49
2022/07/28 09:34:25;;;;;;;3.95;1.90;;;;;;;25.21;100.00;98738.03;5171919;27;20182;-51
2022/07/28 09:36:51;;;;;;;9.05;2.03;;;;;;;24.64;100.00;98726.69;5171821;27;20102;-53
2022/07/28 09:39:31;;;;;;;6.90;2.78;;;;;;;24.43;100.00;98636.00;5171894;27;20046;-53
2022/07/28 09:41:58;;;;;;;7.43;1.88;;;;;;;24.12;100.00;98608.19;5171677;27;20417;-50
2022/07/28 09:44:26;;;;;;;3.83;2.03;;;;;;;23.97;100.00;98607.31;5172178;27;20095;-53
2022/07/28 09:46:56;;;;;;;3.33;1.50;;;;;;;23.66;100.00;98572.66;5172285;27;20053;-52
2022/07/28 09:49:39;;;;;;;4.75;2.00;;;;;;;23.53;100.00;98604.84;5171640;27;20054;-52
2022/07/28 09:52:05;;;;;;;5.65;3.47;;;;;;;23.52;100.00;98474.59;5171990;27;20050;-52
2022/07/28 09:54:32;;;;;;;5.25;2.10;;;;;;;23.48;100.00;98444.75;5171874;27;20054;-53
2022/07/28 09:56:59;;;;;;;2.95;1.88;;;;;;;24.42;100.00;98461.53;5171536;27;20060;-52
2022/07/28 09:59:38;;;;;;;5.03;1.92;;;;;;;25.59;100.00;98590.59;5171503;27;20042;-53
2022/07/28 10:02:04;;;;;;;4.57;2.00;;;;;;;26.59;100.00;98672.38;5171438;27;20054;-51
2022/07/28 10:04:33;;;;;;;7.55;1.80;;;;;;;27.33;100.00;98716.47;5171763;27;20067;-49
2022/07/28 10:07:08;;;;;;;13.50;2.47;;;;;;;27.92;100.00;98745.19;5171675;27;20046;-51
2022/07/28 10:09:35;;;;;;;4.10;1.40;;;;;;;28.17;100.00;98784.38;5171576;27;20174;-53
2022/07/28 10:12:20;;;;;;;5.13;1.85;;;;;;;28.40;100.00;98802.34;5171633;27;20118;-53
2022/07/28 10:14:47;;;;;;;6.28;1.77;;;;;;;28.71;100.00;98815.75;5171374;27;20394;-52
2022/07/28 10:17:30;;;;;;;2.75;1.48;;;;;;;28.14;100.00;98859.41;5171425;27;20054;-51
2022/07/28 10:19:57;;;;;;;4.15;1.27;;;;;;;27.94;100.00;98834.03;5171428;27;20560;-49
2022/07/28 10:22:27;;;;;;;4.60;2.53;;;;;;;27.11;100.00;98815.34;5172795;27;20078;-49
2022/07/28 10:24:56;;;;;;;12.93;2.13;;;;;;;26.72;100.00;98779.69;5174881;27;20057;-52
2022/07/28 10:27:24;;;;;;;3.72;1.75;;;;;;;26.80;100.00;98779.31;5175106;27;20042;-51
2022/07/28 10:29:57;;;;;;;5.05;1.60;;;;;;;26.99;100.00;98722.34;5175064;27;20088;-53
2022/07/28 10:32:23;;;;;;;6.65;2.58;;;;;;;26.31;100.00;98724.47;5175581;27;20811;-51
2022/07/28 10:34:52;;;;;;;3.28;1.58;;;;;;;26.39;100.00;98684.28;5175033;27;20050;-50
2022/07/28 10:37:22;;;;;;;6.18;1.58;;;;;;;26.26;100.00;98720.31;5175109;27;20052;-49
2022/07/28 10:39:56;;;;;;;3.97;1.70;;;;;;;25.91;100.00;98704.06;5174935;27;20398;-52
2022/07/28 10:42:24;;;;;;;2.83;1.67;;;;;;;25.53;100.00;98634.66;5174789;27;20099;-51
2022/07/28 10:44:50;;;;;;;2.35;1.45;;;;;;;25.29;100.00;98677.53;5174780;27;20050;-51
2022/07/28 10:47:18;;;;;;;4.03;1.80;;;;;;;25.52;100.00;98689.22;5174537;27;20087;-53
2022/07/28 10:49:46;;;;;;;3.47;1.75;;;;;;;25.89;100.00;98678.53;5174818;27;20053;-49
2022/07/28 10:52:16;;;;;;;4.40;2.30;;;;;;;25.94;100.00;98652.56;5174523;27;20117;-51
2022/07/28 10:54:48;;;;;;;6.88;1.90;;;;;;;25.77;100.00;98690.75;5174689;27;20137;-51
2022/07/28 10:57:16;;;;;;;5.13;2.00;;;;;;;26.03;100.00;98744.41;5174489;27;20055;-52
2022/07/28 11:00:02;;;;;;;12.55;4.47;;;;;;;25.76;100.00;98670.31;5174380;27;20133;-49
2022/07/28 11:02:45;;;;;;;6.18;1.92;;;;;;;25.63;100.00;98683.84;5174394;27;20523;-53
2022/07/28 11:05:30;;;;;;;3.78;1.27;;;;;;;25.34;100.00;98696.50;5174310;27;20050;-50
2022/07/28 11:07:57;;;;;;;4.88;1.90;;;;;;;25.51;100.00;98668.00;5174125;27;20050;-49
2022/07/28 11:10:24;;;;;;;6.07;2.22;;;;;;;25.63;100.00;98671.84;5174123;27;20058;-54
2022/07/28 11:12:52;;;;;;;3.72;1.50;;;;;;;25.65;100.00;98664.47;5174511;27;20569;-49
2022/07/28 11:15:28;;;;;;;4.13;1.45;;;;;;;25.65;100.00;98692.53;5173106;27;20046;-50
2022/07/28 11:17:58;;;;;;;5.60;1.88;;;;;;;25.69;100.00;98655.84;5174088;27;20050;-51
2022/07/28 11:20:58;;;;;;;2.85;1.95;;;;;;;25.35;100.00;98711.28;5173923;27;20087;-52
2022/07/28 11:23:46;;;;;;;5.00;2.25;;;;;;;25.38;100.00;98678.72;5173961;27;20141;-52
2022/07/28 11:26:35;;;;;;;4.63;1.33;;;;;;;25.21;100.00;98630.66;5167718;27;20057;-50
2022/07/28 11:29:14;;;;;;;8.43;1.90;;;;;;;25.21;100.00;98614.59;5173942;27;20527;-48
2022/07/28 11:32:05;;;;;;;7.38;2.15;;;;;;;25.43;100.00;98639.56;5173778;27;20050;-52
2022/07/28 11:35:07;;;;;;;6.75;2.22;;;;;;;25.09;100.00;98683.69;5173183;27;20049;-49